Time;durP1;ratioP1;P1;durP2;ratioP2;P2;SDS_P1;SDS_P2;PMS_P1;PMS_P2;Temp;Humidity;BMP_temperature;BMP_pressure;BME280_temperature;BME280_humidity;BME280_pressure;Samples;Min_cycle;Max_cycle;Signal;HPM_P1;HPM_P2
2023/05/18 00:00:14;;;;;;;23.33;22.03;;;;;;;;;;5019417;28;20485;-74
2023/05/18 00:02:40;;;;;;;87.27;80.40;;;;;;;;;;5013890;28;20832;-74
2023/05/18 00:05:09;;;;;;;24.43;22.93;;;;;;;;;;5011421;28;20411;-74
2023/05/18 00:07:36;;;;;;;23.00;21.13;;;;;;;;;;5014181;28;20521;-74
2023/05/18 00:10:02;;;;;;;27.53;25.47;;;;;;;;;;5017905;28;20419;-75
2023/05/18 00:12:28;;;;;;;13.07;12.13;;;;;;;;;;5018919;28;20422;-75
2023/05/18 00:14:54;;;;;;;20.07;18.20;;;;;;;;;;5009811;28;20443;-74
2023/05/18 00:17:20;;;;;;;17.20;16.10;;;;;;;;;;5009907;28;20418;-75
2023/05/18 00:19:46;;;;;;;29.53;27.50;;;;;;;;;;5010365;28;20585;-76
2023/05/18 00:22:17;;;;;;;25.87;24.10;;;;;;;;;;5015114;28;20872;-76
2023/05/18 00:24:47;;;;;;;31.57;29.77;;;;;;;;;;5001322;28;20485;-75
2023/05/18 00:27:13;;;;;;;30.37;28.20;;;;;;;;;;5009139;28;20450;-75
2023/05/18 00:29:39;;;;;;;26.57;24.50;;;;;;;;;;5010376;28;20550;-74
2023/05/18 00:32:05;;;;;;;35.83;32.90;;;;;;;;;;5010657;28;20513;-75
2023/05/18 00:34:32;;;;;;;22.50;20.73;;;;;;;;;;5007624;28;20527;-75
2023/05/18 00:36:58;;;;;;;25.20;23.33;;;;;;;;;;5022408;28;20509;-75
2023/05/18 00:39:24;;;;;;;24.37;22.53;;;;;;;;;;5022889;28;21121;-74
2023/05/18 00:41:50;;;;;;;25.77;23.90;;;;;;;;;;5033722;28;20469;-75
2023/05/18 00:44:16;;;;;;;21.53;20.17;;;;;;;;;;5016814;28;20435;-74
2023/05/18 00:46:43;;;;;;;20.87;19.23;;;;;;;;;;5017344;28;20516;-74
2023/05/18 00:49:09;;;;;;;13.83;12.87;;;;;;;;;;5013343;28;20473;-76
2023/05/18 00:51:35;;;;;;;22.63;21.20;;;;;;;;;;5010747;28;20470;-75
2023/05/18 00:54:02;;;;;;;28.50;26.60;;;;;;;;;;5004295;28;20855;-75
2023/05/18 00:56:32;;;;;;;25.40;23.93;;;;;;;;;;5018990;28;20482;-76
2023/05/18 00:59:00;;;;;;;31.60;29.43;;;;;;;;;;5011220;28;20463;-74
2023/05/18 01:01:42;;;;;;;31.10;29.23;;;;;;;;;;5014745;28;20463;-75
2023/05/18 01:04:09;;;;;;;28.83;27.10;;;;;;;;;;5005876;28;20439;-75
2023/05/18 01:06:35;;;;;;;33.27;30.90;;;;;;;;;;5023595;28;20450;-75
2023/05/18 01:09:03;;;;;;;28.10;26.43;;;;;;;;;;5015645;28;20447;-76
2023/05/18 01:11:48;;;;;;;25.53;23.93;;;;;;;;;;5016404;28;20522;-75
2023/05/18 01:14:17;;;;;;;24.93;22.73;;;;;;;;;;4993202;28;20443;-75
2023/05/18 01:17:03;;;;;;;32.27;30.20;;;;;;;;;;5016544;28;20469;-76
2023/05/18 01:19:49;;;;;;;27.70;25.93;;;;;;;;;;5002134;28;20541;-75
2023/05/18 01:22:36;;;;;;;22.00;20.43;;;;;;;;;;5025828;28;20458;-75
2023/05/18 01:25:22;;;;;;;31.67;29.27;;;;;;;;;;5014459;28;20883;-75
2023/05/18 01:27:49;;;;;;;106.30;97.87;;;;;;;;;;4997466;28;20435;-75
2023/05/18 01:30:18;;;;;;;23.37;21.67;;;;;;;;;;5000482;28;20510;-76
2023/05/18 01:32:47;;;;;;;114.13;104.60;;;;;;;;;;5006688;28;20430;-75
2023/05/18 01:35:13;;;;;;;25.40;23.70;;;;;;;;;;5009419;28;20771;-76
2023/05/18 01:37:39;;;;;;;110.63;101.90;;;;;;;;;;5005572;28;20443;-74
2023/05/18 01:40:08;;;;;;;29.20;27.23;;;;;;;;;;5011783;28;21243;-75
2023/05/18 01:42:39;;;;;;;9.88;8.65;;;;;;;;;;5016886;28;20472;-75
2023/05/18 01:45:13;;;;;;;25.90;24.00;;;;;;;;;;5015930;28;20175;-76
2023/05/18 01:47:42;;;;;;;101.47;92.33;;;;;;;;;;5020388;28;20444;-76
2023/05/18 01:50:11;;;;;;;37.83;35.17;;;;;;;;;;5021544;28;20430;-75
2023/05/18 01:52:39;;;;;;;56.67;52.37;;;;;;;;;;5005239;28;20432;-74
2023/05/18 01:55:07;;;;;;;43.17;40.47;;;;;;;;;;5027176;28;20419;-75
2023/05/18 01:57:34;;;;;;;37.50;35.00;;;;;;;;;;5008891;28;20438;-76
2023/05/18 02:00:01;;;;;;;37.10;34.50;;;;;;;;;;5017046;28;20430;-75
2023/05/18 02:02:27;;;;;;;46.00;42.67;;;;;;;;;;5019627;28;21025;-75
2023/05/18 02:04:53;;;;;;;12.13;11.13;;;;;;;;;;5012473;28;20495;-74
2023/05/18 02:07:19;;;;;;;31.87;29.43;;;;;;;;;;5009671;28;20177;-74
2023/05/18 02:09:45;;;;;;;42.60;39.90;;;;;;;;;;5010107;28;20447;-74
2023/05/18 02:12:11;;;;;;;30.53;28.70;;;;;;;;;;5019113;28;20450;-75
2023/05/18 02:14:37;;;;;;;36.67;34.23;;;;;;;;;;5006015;28;20443;-74
2023/05/18 02:17:05;;;;;;;13.40;12.00;;;;;;;;;;5014390;28;20478;-75
2023/05/18 02:19:32;;;;;;;31.27;29.00;;;;;;;;;;5009464;28;20195;-74
2023/05/18 02:21:57;;;;;;;41.93;38.60;;;;;;;;;;5001672;28;20467;-74
2023/05/18 02:24:23;;;;;;;48.43;44.63;;;;;;;;;;5001914;28;20455;-75
2023/05/18 02:26:52;;;;;;;23.27;21.57;;;;;;;;;;5015307;28;20427;-75
2023/05/18 02:29:18;;;;;;;26.03;24.03;;;;;;;;;;5005843;28;20447;-75
2023/05/18 02:31:44;;;;;;;41.10;38.23;;;;;;;;;;5013304;28;20440;-75
2023/05/18 02:34:10;;;;;;;40.37;37.47;;;;;;;;;;5015368;28;20930;-75
2023/05/18 02:36:38;;;;;;;38.60;35.80;;;;;;;;;;5033996;28;20435;-75
2023/05/18 02:39:05;;;;;;;28.93;26.53;;;;;;;;;;5024984;28;20842;-75
2023/05/18 02:41:31;;;;;;;39.00;36.80;;;;;;;;;;5021447;28;20484;-75
2023/05/18 02:43:57;;;;;;;44.60;40.70;;;;;;;;;;5013873;28;20443;-75
2023/05/18 02:46:23;;;;;;;51.17;47.53;;;;;;;;;;5009472;28;20431;-75
2023/05/18 02:48:52;;;;;;;58.40;54.47;;;;;;;;;;5003061;28;21293;-75
2023/05/18 02:51:18;;;;;;;15.15;14.00;;;;;;;;;;5025305;28;20397;-75
2023/05/18 02:53:44;;;;;;;54.90;51.33;;;;;;;;;;5004453;28;20794;-75
2023/05/18 02:56:11;;;;;;;17.33;15.50;;;;;;;;;;5008943;28;20423;-74
2023/05/18 02:58:37;;;;;;;9.65;8.57;;;;;;;;;;5018100;28;20395;-74
2023/05/18 03:01:06;;;;;;;13.57;11.80;;;;;;;;;;5011196;28;20501;-75
2023/05/18 03:03:33;;;;;;;17.05;15.25;;;;;;;;;;5008706;28;20397;-74
2023/05/18 03:06:01;;;;;;;26.10;24.40;;;;;;;;;;4989014;28;20192;-75
2023/05/18 03:08:27;;;;;;;12.27;11.20;;;;;;;;;;5006734;28;21317;-75
2023/05/18 03:10:53;;;;;;;10.82;7.90;;;;;;;;;;5015558;28;20472;-75
2023/05/18 03:13:19;;;;;;;13.82;10.65;;;;;;;;;;5014044;28;20405;-75
2023/05/18 03:15:45;;;;;;;9.95;9.05;;;;;;;;;;5008797;28;20875;-74
2023/05/18 03:18:12;;;;;;;11.48;10.25;;;;;;;;;;5011673;28;20421;-75
2023/05/18 03:20:38;;;;;;;9.82;8.90;;;;;;;;;;5007546;28;20400;-76
2023/05/18 03:23:04;;;;;;;14.80;13.25;;;;;;;;;;5013694;28;21171;-76
2023/05/18 03:25:31;;;;;;;9.77;8.80;;;;;;;;;;5006291;28;20429;-75
2023/05/18 03:27:57;;;;;;;27.93;25.43;;;;;;;;;;5012137;28;20199;-76
2023/05/18 03:30:23;;;;;;;11.98;8.43;;;;;;;;;;5007569;28;20392;-76
2023/05/18 03:32:52;;;;;;;45.50;42.23;;;;;;;;;;5002974;28;20194;-76
2023/05/18 03:35:18;;;;;;;42.17;39.07;;;;;;;;;;5005623;28;20690;-74
2023/05/18 03:37:44;;;;;;;78.20;71.83;;;;;;;;;;5006146;28;20515;-76
2023/05/18 03:40:11;;;;;;;10.70;9.02;;;;;;;;;;5006674;28;20384;-75
2023/05/18 03:42:37;;;;;;;;;;;;;;;;;;5019569;28;20178;-75
2023/05/18 03:45:03;;;;;;;;;;;;;;;;;;5023917;28;19932;-75
2023/05/18 03:47:29;;;;;;;;;;;;;;;;;;5006734;28;19917;-74
2023/05/18 03:49:55;;;;;;;;;;;;;;;;;;5014357;28;20448;-76
2023/05/18 03:52:21;;;;;;;;;;;;;;;;;;5008307;28;19944;-74
2023/05/18 03:54:47;;;;;;;;;;;;;;;;;;5009198;28;20355;-75
2023/05/18 03:57:13;;;;;;;56.03;50.50;;;;;;;;;;5006986;28;20015;-75
2023/05/18 03:59:39;;;;;;;54.17;49.33;;;;;;;;;;5004962;28;20530;-74
2023/05/18 04:02:06;;;;;;;66.57;61.17;;;;;;;;;;5007738;28;21297;-76
2023/05/18 04:04:32;;;;;;;59.20;54.90;;;;;;;;;;5001089;28;20434;-77
2023/05/18 04:07:01;;;;;;;43.97;40.67;;;;;;;;;;4988928;28;20419;-76
2023/05/18 04:09:27;;;;;;;67.33;62.00;;;;;;;;;;5018977;28;20449;-75
2023/05/18 04:11:53;;;;;;;19.33;17.45;;;;;;;;;;5013719;28;20409;-75
2023/05/18 04:14:19;;;;;;;43.20;39.97;;;;;;;;;;5015241;28;20188;-74
2023/05/18 04:16:46;;;;;;;16.63;15.00;;;;;;;;;;5015647;28;20474;-75
2023/05/18 04:19:12;;;;;;;136.27;126.03;;;;;;;;;;5006951;28;20439;-75
2023/05/18 04:21:42;;;;;;;53.17;48.70;;;;;;;;;;5019802;28;20493;-76
2023/05/18 04:24:13;;;;;;;47.77;44.17;;;;;;;;;;5005842;28;20497;-76
2023/05/18 04:26:39;;;;;;;;;;;;;;;;;;5010346;28;20261;-76
2023/05/18 04:29:06;;;;;;;93.70;86.83;;;;;;;;;;5015890;28;20133;-74
2023/05/18 04:31:33;;;;;;;74.97;68.97;;;;;;;;;;5026363;28;20403;-75
2023/05/18 04:33:59;;;;;;;54.63;50.83;;;;;;;;;;5017637;28;20426;-76
2023/05/18 04:36:29;;;;;;;59.43;55.13;;;;;;;;;;5016494;28;20441;-75
2023/05/18 04:38:57;;;;;;;63.57;59.03;;;;;;;;;;5022917;28;20949;-75
2023/05/18 04:41:23;;;;;;;47.30;44.30;;;;;;;;;;5013956;28;20474;-76
2023/05/18 04:43:49;;;;;;;18.17;16.30;;;;;;;;;;5017988;28;20485;-75
2023/05/18 04:46:15;;;;;;;47.50;44.10;;;;;;;;;;5004213;28;20276;-75
2023/05/18 04:48:42;;;;;;;40.83;38.43;;;;;;;;;;5022762;28;20427;-76
2023/05/18 04:51:08;;;;;;;15.05;13.52;;;;;;;;;;5001553;28;20432;-76
2023/05/18 04:53:34;;;;;;;56.10;52.07;;;;;;;;;;5011559;28;20289;-75
2023/05/18 04:56:00;;;;;;;;;;;;;;;;;;4989222;28;20289;-75
2023/05/18 04:58:29;;;;;;;;;;;;;;;;;;5020833;28;19910;-75
2023/05/18 05:00:55;;;;;;;;;;;;;;;;;;5012608;28;19963;-76
2023/05/18 05:03:21;;;;;;;30.75;28.25;;;;;;;;;;4996138;28;20961;-75
2023/05/18 05:05:47;;;;;;;100.87;93.07;;;;;;;;;;5009359;28;20196;-77
2023/05/18 05:08:13;;;;;;;82.43;75.80;;;;;;;;;;4999243;28;20690;-76
2023/05/18 05:10:39;;;;;;;97.13;90.70;;;;;;;;;;5019303;28;20710;-75
2023/05/18 05:13:05;;;;;;;98.47;91.37;;;;;;;;;;5000889;28;20427;-75
2023/05/18 05:15:32;;;;;;;66.43;62.50;;;;;;;;;;5003408;28;20567;-76
2023/05/18 05:17:58;;;;;;;72.90;67.40;;;;;;;;;;5009036;28;20444;-76
2023/05/18 05:20:24;;;;;;;93.80;86.77;;;;;;;;;;5006946;28;20442;-76
2023/05/18 05:22:50;;;;;;;90.13;84.23;;;;;;;;;;5004912;28;21015;-76
2023/05/18 05:25:16;;;;;;;120.50;113.10;;;;;;;;;;5017743;28;20518;-76
2023/05/18 05:27:42;;;;;;;35.43;21.00;;;;;;;;;;5024594;28;20457;-76
2023/05/18 05:30:09;;;;;;;24.00;22.27;;;;;;;;;;5024700;28;20546;-76
2023/05/18 05:32:35;;;;;;;22.37;21.07;;;;;;;;;;5026294;28;21181;-74
2023/05/18 05:35:01;;;;;;;60.60;57.03;;;;;;;;;;5020736;28;20816;-76
2023/05/18 05:37:28;;;;;;;86.83;81.73;;;;;;;;;;5019066;28;20475;-75
2023/05/18 05:39:55;;;;;;;77.37;72.50;;;;;;;;;;5010955;28;20457;-77
2023/05/18 05:42:21;;;;;;;17.38;15.73;;;;;;;;;;5022082;28;21129;-76
2023/05/18 05:44:47;;;;;;;37.77;34.87;;;;;;;;;;4995206;28;20216;-75
2023/05/18 05:47:13;;;;;;;51.03;48.40;;;;;;;;;;5006611;28;20458;-77
2023/05/18 05:49:39;;;;;;;64.87;61.33;;;;;;;;;;5022015;28;20804;-75
2023/05/18 05:52:05;;;;;;;77.97;73.77;;;;;;;;;;5022080;28;20458;-76
2023/05/18 05:54:31;;;;;;;64.80;60.70;;;;;;;;;;5025188;28;20898;-75
2023/05/18 05:56:57;;;;;;;89.67;84.50;;;;;;;;;;5008518;28;20494;-76
2023/05/18 05:59:23;;;;;;;82.63;78.03;;;;;;;;;;5021978;28;20835;-77
2023/05/18 06:01:49;;;;;;;82.13;77.63;;;;;;;;;;5004399;28;20529;-75
2023/05/18 06:04:15;;;;;;;62.27;58.83;;;;;;;;;;5019063;28;20428;-77
2023/05/18 06:06:42;;;;;;;40.93;38.60;;;;;;;;;;5011384;28;20525;-78
2023/05/18 06:09:09;;;;;;;20.47;19.07;;;;;;;;;;4989810;28;20440;-76
2023/05/18 06:11:35;;;;;;;9.55;8.65;;;;;;;;;;5011767;28;20441;-78
2023/05/18 06:14:01;;;;;;;33.97;31.73;;;;;;;;;;5023160;28;20191;-76
2023/05/18 06:16:27;;;;;;;46.83;44.10;;;;;;;;;;5005786;28;20946;-76
2023/05/18 06:18:56;;;;;;;64.37;60.47;;;;;;;;;;4995093;28;20443;-78
2023/05/18 06:21:25;;;;;;;51.87;48.60;;;;;;;;;;4994293;28;20467;-77
2023/05/18 06:23:55;;;;;;;37.23;35.20;;;;;;;;;;5018132;28;20463;-76
2023/05/18 06:26:24;;;;;;;58.10;54.67;;;;;;;;;;5019143;28;20440;-76
2023/05/18 06:28:50;;;;;;;64.30;61.10;;;;;;;;;;5029740;28;20506;-77
2023/05/18 06:31:17;;;;;;;64.20;60.70;;;;;;;;;;5018731;28;20554;-76
2023/05/18 06:33:43;;;;;;;23.27;21.60;;;;;;;;;;5011313;28;20442;-77
2023/05/18 06:36:09;;;;;;;18.33;16.40;;;;;;;;;;5016373;28;21022;-78
2023/05/18 06:38:35;;;;;;;19.57;17.90;;;;;;;;;;5011244;28;20755;-77
2023/05/18 06:41:01;;;;;;;42.33;39.73;;;;;;;;;;5008893;28;20496;-76
2023/05/18 06:43:27;;;;;;;44.30;41.57;;;;;;;;;;5019780;28;20415;-78
2023/05/18 06:45:54;;;;;;;46.80;44.33;;;;;;;;;;5008080;28;20498;-77
2023/05/18 06:48:21;;;;;;;48.67;46.10;;;;;;;;;;5014865;28;20527;-78
2023/05/18 06:50:47;;;;;;;40.30;37.73;;;;;;;;;;5015253;28;20447;-77
2023/05/18 06:53:13;;;;;;;69.73;66.23;;;;;;;;;;5006435;28;20414;-76
2023/05/18 06:55:39;;;;;;;39.17;36.77;;;;;;;;;;5004257;28;20538;-78
2023/05/18 06:58:05;;;;;;;17.87;16.57;;;;;;;;;;4994032;28;20518;-76
2023/05/18 07:00:31;;;;;;;68.70;62.73;;;;;;;;;;5022945;28;20529;-76
2023/05/18 07:02:57;;;;;;;20.80;19.13;;;;;;;;;;5008498;28;20466;-76
2023/05/18 07:05:23;;;;;;;14.67;13.20;;;;;;;;;;5018365;28;20449;-75
2023/05/18 07:07:49;;;;;;;24.37;22.80;;;;;;;;;;5007435;28;20546;-76
2023/05/18 07:10:15;;;;;;;27.97;26.30;;;;;;;;;;5006730;28;20475;-76
2023/05/18 07:12:41;;;;;;;24.57;22.60;;;;;;;;;;5010974;28;20454;-77
2023/05/18 07:15:08;;;;;;;36.90;34.43;;;;;;;;;;5006937;28;20530;-76
2023/05/18 07:17:34;;;;;;;16.53;15.27;;;;;;;;;;5010363;28;20415;-76
2023/05/18 07:20:00;;;;;;;17.73;16.03;;;;;;;;;;5012869;28;20513;-76
2023/05/18 07:22:26;;;;;;;17.53;16.30;;;;;;;;;;5014385;28;20469;-75
2023/05/18 07:24:52;;;;;;;33.90;31.80;;;;;;;;;;5010186;28;20474;-76
2023/05/18 07:27:18;;;;;;;38.90;36.60;;;;;;;;;;5015176;28;20473;-77
2023/05/18 07:29:44;;;;;;;83.63;79.73;;;;;;;;;;5012332;28;20454;-76
2023/05/18 07:32:10;;;;;;;93.07;88.37;;;;;;;;;;5016347;28;20414;-75
2023/05/18 07:34:36;;;;;;;124.70;116.67;;;;;;;;;;5008690;28;20438;-77
2023/05/18 07:37:02;;;;;;;51.33;48.53;;;;;;;;;;4989800;28;20422;-75
2023/05/18 07:39:28;;;;;;;52.73;47.93;;;;;;;;;;5009140;28;20453;-77
2023/05/18 07:41:55;;;;;;;39.37;37.00;;;;;;;;;;5015365;28;20498;-77
2023/05/18 07:44:21;;;;;;;37.10;33.83;;;;;;;;;;5015236;28;20787;-75
2023/05/18 07:46:47;;;;;;;48.47;45.57;;;;;;;;;;5014869;28;20430;-76
2023/05/18 07:49:13;;;;;;;16.77;15.50;;;;;;;;;;5018962;28;20434;-75
2023/05/18 07:51:41;;;;;;;24.80;23.30;;;;;;;;;;4992613;28;20438;-76
2023/05/18 07:54:07;;;;;;;34.03;32.10;;;;;;;;;;5014331;28;20915;-75
2023/05/18 07:56:34;;;;;;;26.33;24.70;;;;;;;;;;5003221;28;20590;-76
2023/05/18 07:59:00;;;;;;;44.33;41.70;;;;;;;;;;5006902;28;20791;-76
2023/05/18 08:01:28;;;;;;;42.90;40.30;;;;;;;;;;5019663;28;20566;-76
2023/05/18 08:03:55;;;;;;;44.50;42.00;;;;;;;;;;5010257;28;20522;-74
2023/05/18 08:06:21;;;;;;;27.57;25.83;;;;;;;;;;5019390;28;20504;-76
2023/05/18 08:08:47;;;;;;;37.87;35.63;;;;;;;;;;5017483;28;20423;-75
2023/05/18 08:11:13;;;;;;;40.90;38.70;;;;;;;;;;5018081;28;20921;-76
2023/05/18 08:13:39;;;;;;;7.70;7.30;;;;;;;;;;5016346;28;20442;-75
2023/05/18 08:16:05;;;;;;;85.80;81.50;;;;;;;;;;5015645;28;20950;-75
2023/05/18 08:18:31;;;;;;;78.47;74.77;;;;;;;;;;5019212;28;20438;-74
2023/05/18 08:20:57;;;;;;;9.23;8.52;;;;;;;;;;5009578;28;20389;-74
2023/05/18 08:23:24;;;;;;;23.80;22.23;;;;;;;;;;5020959;28;20196;-75
2023/05/18 08:25:50;;;;;;;43.57;40.83;;;;;;;;;;5030271;28;21010;-75
2023/05/18 08:28:16;;;;;;;52.77;49.53;;;;;;;;;;5006835;28;20465;-75
2023/05/18 08:30:44;;;;;;;59.40;56.87;;;;;;;;;;5012352;28;20442;-74
2023/05/18 08:33:10;;;;;;;57.27;53.87;;;;;;;;;;5017921;28;20375;-74
2023/05/18 08:35:36;;;;;;;10.25;9.35;;;;;;;;;;5012278;28;20401;-74
2023/05/18 08:38:02;;;;;;;76.50;72.23;;;;;;;;;;5008031;28;20338;-74
2023/05/18 08:40:34;;;;;;;225.40;215.37;;;;;;;;;;5016225;28;20500;-75
2023/05/18 08:43:08;;;;;;;36.97;34.90;;;;;;;;;;5008789;28;20405;-74
2023/05/18 08:45:45;;;;;;;158.37;151.53;;;;;;;;;;5005702;28;20646;-74
2023/05/18 08:48:12;;;;;;;41.58;39.42;;;;;;;;;;5008454;28;20417;-74
2023/05/18 08:50:41;;;;;;;92.40;88.17;;;;;;;;;;5013452;28;20200;-75
2023/05/18 08:53:09;;;;;;;22.98;21.08;;;;;;;;;;5006276;28;20389;-75
2023/05/18 08:55:35;;;;;;;7.93;7.32;;;;;;;;;;5007254;28;20648;-75
2023/05/18 08:58:02;;;;;;;163.43;156.23;;;;;;;;;;5022541;28;20184;-76
2023/05/18 09:00:28;;;;;;;138.10;132.00;;;;;;;;;;5018366;28;20450;-74
2023/05/18 09:02:55;;;;;;;166.80;159.70;;;;;;;;;;5015463;28;20580;-75
2023/05/18 09:05:27;;;;;;;18.90;17.53;;;;;;;;;;4994106;28;20443;-76
2023/05/18 09:07:54;;;;;;;25.03;22.93;;;;;;;;;;5018256;28;20451;-75
2023/05/18 09:10:21;;;;;;;51.43;48.63;;;;;;;;;;5021281;28;20789;-74
2023/05/18 09:12:48;;;;;;;136.50;130.20;;;;;;;;;;5016011;28;20518;-75
2023/05/18 09:15:16;;;;;;;258.37;246.60;;;;;;;;;;5016590;28;20453;-75
2023/05/18 09:17:42;;;;;;;212.37;202.70;;;;;;;;;;5022316;28;20443;-75
2023/05/18 09:20:09;;;;;;;152.70;146.03;;;;;;;;;;5015156;28;20473;-74
2023/05/18 09:22:35;;;;;;;121.17;115.93;;;;;;;;;;5012421;28;20462;-74
2023/05/18 09:25:05;;;;;;;131.47;125.70;;;;;;;;;;5017278;28;20466;-74
2023/05/18 09:27:31;;;;;;;40.50;38.47;;;;;;;;;;5017249;28;20507;-73
2023/05/18 09:30:00;;;;;;;96.43;92.33;;;;;;;;;;5021798;28;20458;-76
2023/05/18 09:32:27;;;;;;;67.07;63.37;;;;;;;;;;5022576;28;20449;-75
2023/05/18 09:34:54;;;;;;;143.63;137.53;;;;;;;;;;5014392;28;20442;-73
2023/05/18 09:37:22;;;;;;;44.97;42.43;;;;;;;;;;5022134;28;21043;-76
2023/05/18 09:39:58;;;;;;;16.60;15.30;;;;;;;;;;5012052;28;20435;-75
2023/05/18 09:42:38;;;;;;;223.60;213.30;;;;;;;;;;4995092;28;20470;-76
2023/05/18 09:45:15;;;;;;;27.17;25.63;;;;;;;;;;5017674;28;20669;-76
2023/05/18 09:47:41;;;;;;;98.57;94.17;;;;;;;;;;5022484;28;20439;-75
2023/05/18 09:50:07;;;;;;;11.98;10.98;;;;;;;;;;5025862;28;20488;-78
2023/05/18 09:52:41;;;;;;;7.07;6.57;;;;;;;;;;5002890;28;20414;-76
2023/05/18 09:55:07;;;;;;;31.10;28.83;;;;;;;;;;5026193;28;20195;-76
2023/05/18 09:57:37;;;;;;;122.10;116.73;;;;;;;;;;5011840;28;20523;-76
2023/05/18 10:00:09;;;;;;;81.82;78.18;;;;;;;;;;5007543;28;20450;-77
2023/05/18 10:02:37;;;;;;;147.33;140.80;;;;;;;;;;5006210;28;20295;-76
2023/05/18 10:05:03;;;;;;;303.93;290.13;;;;;;;;;;5033208;28;20502;-76
2023/05/18 10:07:30;;;;;;;101.90;97.30;;;;;;;;;;5024845;28;20922;-77
2023/05/18 10:10:02;;;;;;;14.77;13.57;;;;;;;;;;5028968;28;20431;-77
2023/05/18 10:12:29;;;;;;;107.00;102.37;;;;;;;;;;5025886;28;21002;-78
2023/05/18 10:14:58;;;;;;;76.17;72.70;;;;;;;;;;5016171;28;20502;-78
2023/05/18 10:17:25;;;;;;;63.27;60.43;;;;;;;;;;5032360;28;20458;-78
2023/05/18 10:19:52;;;;;;;53.10;50.50;;;;;;;;;;5020552;28;20917;-77
2023/05/18 10:22:21;;;;;;;34.23;32.13;;;;;;;;;;5028794;28;20477;-76
2023/05/18 10:24:50;;;;;;;27.00;25.50;;;;;;;;;;5026193;28;20453;-76
2023/05/18 10:27:17;;;;;;;56.73;53.53;;;;;;;;;;5019893;28;20805;-76
2023/05/18 10:29:45;;;;;;;35.27;33.20;;;;;;;;;;5008697;28;20466;-77
2023/05/18 10:32:12;;;;;;;8.25;7.47;;;;;;;;;;5021539;28;20496;-75
2023/05/18 10:34:38;;;;;;;10.30;9.30;;;;;;;;;;5023542;28;20391;-76
2023/05/18 10:37:04;;;;;;;8.60;7.80;;;;;;;;;;5004073;28;20605;-77
2023/05/18 10:39:36;;;;;;;6.40;5.70;;;;;;;;;;5030432;28;20403;-75
2023/05/18 10:42:02;;;;;;;7.18;6.57;;;;;;;;;;5011559;28;20410;-74
2023/05/18 10:44:28;;;;;;;9.57;8.30;;;;;;;;;;5038875;28;20443;-76
2023/05/18 10:46:55;;;;;;;11.25;10.05;;;;;;;;;;5007116;28;20391;-76
2023/05/18 10:49:25;;;;;;;11.93;6.20;;;;;;;;;;5016203;28;20391;-76
2023/05/18 10:51:57;;;;;;;9.00;7.82;;;;;;;;;;5008364;28;20478;-77
2023/05/18 10:54:23;;;;;;;8.88;8.07;;;;;;;;;;5033282;28;20400;-77
2023/05/18 10:56:52;;;;;;;10.18;9.07;;;;;;;;;;5013895;28;20795;-76
2023/05/18 10:59:24;;;;;;;8.50;7.63;;;;;;;;;;5017725;28;20412;-77
2023/05/18 11:01:51;;;;;;;12.33;11.43;;;;;;;;;;5011589;28;20214;-76
2023/05/18 11:04:25;;;;;;;8.13;7.20;;;;;;;;;;5025492;28;20405;-76
2023/05/18 11:06:57;;;;;;;8.90;7.97;;;;;;;;;;5011059;28;20383;-76
2023/05/18 11:09:24;;;;;;;7.75;6.25;;;;;;;;;;5011142;28;20725;-77
2023/05/18 11:11:56;;;;;;;9.23;6.80;;;;;;;;;;5004126;28;20270;-76
2023/05/18 11:14:26;;;;;;;7.50;6.82;;;;;;;;;;4997101;28;20837;-76
2023/05/18 11:16:52;;;;;;;9.40;8.50;;;;;;;;;;5003747;28;20398;-75
2023/05/18 11:19:19;;;;;;;10.10;8.18;;;;;;;;;;5021700;28;20897;-75
2023/05/18 11:21:45;;;;;;;9.30;8.40;;;;;;;;;;5014509;28;20447;-74
2023/05/18 11:24:16;;;;;;;6.47;5.87;;;;;;;;;;5012604;28;20510;-75
2023/05/18 11:26:44;;;;;;;5.70;5.20;;;;;;;;;;5015847;28;20424;-77
2023/05/18 11:29:17;;;;;;;8.77;7.88;;;;;;;;;;5019652;28;20390;-76
2023/05/18 11:31:46;;;;;;;10.38;9.38;;;;;;;;;;5008192;28;20395;-76
2023/05/18 11:34:31;;;;;;;14.47;13.47;;;;;;;;;;4998672;28;20231;-76
2023/05/18 11:36:57;;;;;;;12.07;11.13;;;;;;;;;;5016381;28;20532;-76
2023/05/18 11:39:24;;;;;;;12.90;11.90;;;;;;;;;;5007127;28;20428;-76
2023/05/18 11:42:19;;;;;;;8.37;7.57;;;;;;;;;;5016961;28;20466;-74
2023/05/18 11:44:51;;;;;;;28.77;26.90;;;;;;;;;;5009195;28;20525;-76
2023/05/18 11:47:18;;;;;;;10.60;9.60;;;;;;;;;;5018995;28;20442;-75
2023/05/18 11:49:45;;;;;;;9.80;8.90;;;;;;;;;;5005730;28;20922;-75
2023/05/18 11:52:21;;;;;;;8.27;7.40;;;;;;;;;;4999557;28;20531;-75
2023/05/18 11:54:55;;;;;;;14.83;13.93;;;;;;;;;;5014805;28;20461;-74
2023/05/18 11:57:33;;;;;;;16.07;14.73;;;;;;;;;;5019208;28;20442;-75
2023/05/18 12:00:05;;;;;;;16.73;15.47;;;;;;;;;;5011534;28;20419;-76
2023/05/18 12:02:32;;;;;;;10.40;9.40;;;;;;;;;;4993371;28;20818;-76
2023/05/18 12:05:01;;;;;;;8.10;7.67;;;;;;;;;;5022408;28;20791;-77
2023/05/18 12:07:28;;;;;;;10.83;9.77;;;;;;;;;;5023483;28;20476;-75
2023/05/18 12:09:58;;;;;;;15.63;12.37;;;;;;;;;;5026549;28;20807;-75
2023/05/18 12:12:24;;;;;;;9.40;8.70;;;;;;;;;;5014093;28;20454;-76
2023/05/18 12:14:56;;;;;;;10.53;9.67;;;;;;;;;;5025160;28;20793;-77
2023/05/18 12:17:23;;;;;;;12.30;11.03;;;;;;;;;;5005402;28;20439;-77
2023/05/18 12:19:51;;;;;;;12.87;11.87;;;;;;;;;;5043553;28;20643;-77
2023/05/18 12:22:23;;;;;;;15.17;13.83;;;;;;;;;;5020732;28;20837;-75
2023/05/18 12:24:54;;;;;;;11.37;10.13;;;;;;;;;;5017034;28;20589;-76
2023/05/18 12:27:25;;;;;;;10.13;9.23;;;;;;;;;;5016926;28;20468;-74
2023/05/18 12:29:53;;;;;;;9.93;9.00;;;;;;;;;;5021972;28;20465;-74
2023/05/18 12:32:20;;;;;;;11.13;9.07;;;;;;;;;;5013423;28;20986;-76
2023/05/18 12:34:51;;;;;;;9.53;8.73;;;;;;;;;;5022632;28;20442;-76
2023/05/18 12:37:17;;;;;;;13.70;12.10;;;;;;;;;;5018286;28;20794;-76
2023/05/18 12:39:45;;;;;;;15.03;13.97;;;;;;;;;;5003546;28;20423;-76
2023/05/18 12:42:16;;;;;;;17.93;16.50;;;;;;;;;;5021395;28;20458;-76
2023/05/18 12:44:42;;;;;;;19.10;17.70;;;;;;;;;;5027434;28;20413;-76
2023/05/18 12:47:10;;;;;;;12.60;11.50;;;;;;;;;;4999140;28;21004;-77
2023/05/18 12:49:37;;;;;;;18.60;16.93;;;;;;;;;;5023031;28;20414;-77
2023/05/18 12:52:10;;;;;;;15.07;14.07;;;;;;;;;;5000049;28;20431;-77
2023/05/18 12:54:38;;;;;;;20.10;18.63;;;;;;;;;;5025698;28;20490;-76
2023/05/18 12:57:08;;;;;;;14.80;13.77;;;;;;;;;;5018408;28;20687;-76
2023/05/18 12:59:34;;;;;;;39.43;37.23;;;;;;;;;;5030086;28;20633;-78
2023/05/18 13:02:00;;;;;;;42.53;39.83;;;;;;;;;;5010179;28;20550;-77
2023/05/18 13:04:36;;;;;;;66.90;63.20;;;;;;;;;;5025495;28;20467;-76
2023/05/18 13:07:02;;;;;;;91.53;87.30;;;;;;;;;;4998789;28;20435;-75
2023/05/18 13:09:28;;;;;;;121.13;115.57;;;;;;;;;;5031027;28;20410;-75
2023/05/18 13:12:00;;;;;;;141.40;135.23;;;;;;;;;;5020275;28;20671;-76
2023/05/18 13:14:29;;;;;;;97.20;92.50;;;;;;;;;;5015833;28;20523;-78
2023/05/18 13:16:56;;;;;;;53.80;50.90;;;;;;;;;;5015186;28;20439;-75
2023/05/18 13:19:22;;;;;;;183.50;175.47;;;;;;;;;;5025376;28;20406;-77
2023/05/18 13:21:55;;;;;;;269.10;254.90;;;;;;;;;;5020155;28;20462;-77
2023/05/18 13:24:21;;;;;;;243.60;233.17;;;;;;;;;;5013125;28;20459;-76
2023/05/18 13:26:47;;;;;;;337.43;318.93;;;;;;;;;;4996215;28;20499;-75
2023/05/18 13:29:13;;;;;;;73.53;69.87;;;;;;;;;;5023563;28;20445;-76
2023/05/18 13:31:39;;;;;;;368.47;349.93;;;;;;;;;;5017882;28;20962;-77
2023/05/18 13:34:05;;;;;;;249.33;237.20;;;;;;;;;;5028419;28;20453;-76
2023/05/18 13:36:35;;;;;;;149.47;142.87;;;;;;;;;;5016827;28;20431;-76
2023/05/18 13:39:06;;;;;;;116.03;110.80;;;;;;;;;;5029866;28;20448;-76
2023/05/18 13:41:35;;;;;;;35.00;33.10;;;;;;;;;;5032258;28;20950;-79
2023/05/18 13:46:53;;;;;;;172.57;164.93;;;;;;;;;;5027849;28;20428;-76
2023/05/18 13:49:19;;;;;;;164.83;157.27;;;;;;;;;;5022303;28;20458;-77
2023/05/18 13:51:46;;;;;;;196.13;186.07;;;;;;;;;;5021123;28;20422;-77
2023/05/18 13:54:12;;;;;;;251.17;239.47;;;;;;;;;;5021443;28;20435;-75
2023/05/18 13:56:38;;;;;;;281.37;268.07;;;;;;;;;;5017702;28;20493;-75
2023/05/18 13:59:04;;;;;;;68.70;64.73;;;;;;;;;;5026927;28;20718;-75
2023/05/18 14:01:31;;;;;;;256.07;244.27;;;;;;;;;;4999619;28;20522;-76
2023/05/18 14:03:57;;;;;;;242.60;231.60;;;;;;;;;;5013321;28;20442;-77
2023/05/18 14:06:26;;;;;;;285.90;273.10;;;;;;;;;;5006595;28;20438;-77
2023/05/18 14:08:53;;;;;;;357.70;340.40;;;;;;;;;;5027351;28;20879;-76
2023/05/18 14:11:19;;;;;;;232.73;222.70;;;;;;;;;;5022816;28;20517;-76
2023/05/18 14:13:45;;;;;;;322.67;307.03;;;;;;;;;;5020397;28;20435;-76
2023/05/18 14:16:11;;;;;;;173.10;165.60;;;;;;;;;;5012986;28;20447;-75
2023/05/18 14:18:36;;;;;;;247.87;236.67;;;;;;;;;;5041191;28;20438;-77
2023/05/18 14:21:02;;;;;;;75.83;71.90;;;;;;;;;;5023383;28;20876;-76
2023/05/18 14:23:31;;;;;;;68.57;64.90;;;;;;;;;;5029632;28;20488;-77
2023/05/18 14:26:00;;;;;;;155.80;149.17;;;;;;;;;;5024802;28;20459;-76